sensor_id;sensor_type;location;lat;lon;timestamp;P1;durP1;ratioP1;P2;durP2;ratioP2
18082;SDS011;9168;51.194;6.840;2023-09-08T00:02:17;11.57;;;5.53;;
18082;SDS011;9168;51.194;6.840;2023-09-08T00:04:44;10.75;;;5.57;;
18082;SDS011;9168;51.194;6.840;2023-09-08T00:07:11;9.00;;;5.28;;
18082;SDS011;9168;51.194;6.840;2023-09-08T00:09:37;12.95;;;5.72;;
18082;SDS011;9168;51.194;6.840;2023-09-08T00:12:04;11.82;;;5.50;;
18082;SDS011;9168;51.194;6.840;2023-09-08T00:14:32;12.02;;;6.10;;
18082;SDS011;9168;51.194;6.840;2023-09-08T00:16:59;11.85;;;5.35;;
18082;SDS011;9168;51.194;6.840;2023-09-08T00:19:27;11.70;;;5.30;;
18082;SDS011;9168;51.194;6.840;2023-09-08T00:21:54;10.65;;;5.30;;
18082;SDS011;9168;51.194;6.840;2023-09-08T00:24:21;13.35;;;5.90;;
18082;SDS011;9168;51.194;6.840;2023-09-08T00:26:47;10.52;;;5.40;;
18082;SDS011;9168;51.194;6.840;2023-09-08T00:29:14;12.65;;;5.75;;
18082;SDS011;9168;51.194;6.840;2023-09-08T00:31:41;8.77;;;4.95;;
18082;SDS011;9168;51.194;6.840;2023-09-08T00:34:08;10.48;;;5.25;;
18082;SDS011;9168;51.194;6.840;2023-09-08T00:36:36;13.00;;;5.25;;
18082;SDS011;9168;51.194;6.840;2023-09-08T00:39:03;14.98;;;5.85;;
18082;SDS011;9168;51.194;6.840;2023-09-08T00:41:30;15.63;;;5.65;;
18082;SDS011;9168;51.194;6.840;2023-09-08T00:43:58;8.55;;;5.10;;
18082;SDS011;9168;51.194;6.840;2023-09-08T00:46:24;11.07;;;5.68;;
18082;SDS011;9168;51.194;6.840;2023-09-08T00:48:52;8.25;;;5.20;;
18082;SDS011;9168;51.194;6.840;2023-09-08T00:51:19;14.85;;;5.93;;
18082;SDS011;9168;51.194;6.840;2023-09-08T00:53:48;9.68;;;5.60;;
18082;SDS011;9168;51.194;6.840;2023-09-08T00:56:16;14.93;;;6.40;;
18082;SDS011;9168;51.194;6.840;2023-09-08T00:58:43;12.27;;;5.72;;
18082;SDS011;9168;51.194;6.840;2023-09-08T01:01:10;12.27;;;6.40;;
18082;SDS011;9168;51.194;6.840;2023-09-08T01:03:37;13.25;;;5.93;;
18082;SDS011;9168;51.194;6.840;2023-09-08T01:06:04;11.48;;;5.68;;
18082;SDS011;9168;51.194;6.840;2023-09-08T01:08:32;14.35;;;5.75;;
18082;SDS011;9168;51.194;6.840;2023-09-08T01:11:01;15.27;;;5.95;;
18082;SDS011;9168;51.194;6.840;2023-09-08T01:13:29;12.70;;;6.03;;
18082;SDS011;9168;51.194;6.840;2023-09-08T01:15:55;14.82;;;6.93;;
18082;SDS011;9168;51.194;6.840;2023-09-08T01:18:22;18.48;;;6.88;;
18082;SDS011;9168;51.194;6.840;2023-09-08T01:23:59;22.38;;;7.10;;
18082;SDS011;9168;51.194;6.840;2023-09-08T01:26:42;15.02;;;6.75;;
18082;SDS011;9168;51.194;6.840;2023-09-08T01:29:09;13.10;;;6.10;;
18082;SDS011;9168;51.194;6.840;2023-09-08T01:31:37;14.32;;;6.43;;
18082;SDS011;9168;51.194;6.840;2023-09-08T01:34:04;13.85;;;6.30;;
18082;SDS011;9168;51.194;6.840;2023-09-08T01:36:32;14.52;;;6.43;;
18082;SDS011;9168;51.194;6.840;2023-09-08T01:38:59;15.20;;;6.50;;
18082;SDS011;9168;51.194;6.840;2023-09-08T01:41:27;13.63;;;6.07;;
18082;SDS011;9168;51.194;6.840;2023-09-08T01:43:55;16.90;;;6.47;;
18082;SDS011;9168;51.194;6.840;2023-09-08T01:46:22;11.75;;;5.90;;
18082;SDS011;9168;51.194;6.840;2023-09-08T01:48:49;18.02;;;6.53;;
18082;SDS011;9168;51.194;6.840;2023-09-08T01:51:16;14.90;;;6.45;;
18082;SDS011;9168;51.194;6.840;2023-09-08T01:53:43;13.68;;;6.75;;
18082;SDS011;9168;51.194;6.840;2023-09-08T01:56:10;16.17;;;6.50;;
18082;SDS011;9168;51.194;6.840;2023-09-08T01:58:37;14.43;;;5.90;;
18082;SDS011;9168;51.194;6.840;2023-09-08T02:01:05;20.05;;;6.72;;
18082;SDS011;9168;51.194;6.840;2023-09-08T02:03:32;14.60;;;6.75;;
18082;SDS011;9168;51.194;6.840;2023-09-08T02:05:59;21.15;;;6.53;;
18082;SDS011;9168;51.194;6.840;2023-09-08T02:08:26;11.02;;;6.57;;
18082;SDS011;9168;51.194;6.840;2023-09-08T02:10:53;12.27;;;6.32;;
18082;SDS011;9168;51.194;6.840;2023-09-08T02:13:19;12.20;;;6.45;;
18082;SDS011;9168;51.194;6.840;2023-09-08T02:15:46;12.70;;;6.70;;
18082;SDS011;9168;51.194;6.840;2023-09-08T02:18:15;11.48;;;6.47;;
18082;SDS011;9168;51.194;6.840;2023-09-08T02:20:42;16.10;;;6.70;;
18082;SDS011;9168;51.194;6.840;2023-09-08T02:23:08;14.15;;;6.25;;
18082;SDS011;9168;51.194;6.840;2023-09-08T02:25:35;12.30;;;6.15;;
18082;SDS011;9168;51.194;6.840;2023-09-08T02:28:02;14.75;;;5.68;;
18082;SDS011;9168;51.194;6.840;2023-09-08T02:30:29;11.00;;;6.32;;
18082;SDS011;9168;51.194;6.840;2023-09-08T02:32:56;11.38;;;5.80;;
18082;SDS011;9168;51.194;6.840;2023-09-08T02:35:24;16.05;;;6.32;;
18082;SDS011;9168;51.194;6.840;2023-09-08T02:37:51;16.33;;;6.75;;
18082;SDS011;9168;51.194;6.840;2023-09-08T02:40:18;13.35;;;6.38;;
18082;SDS011;9168;51.194;6.840;2023-09-08T02:42:45;12.18;;;6.25;;
18082;SDS011;9168;51.194;6.840;2023-09-08T02:45:12;13.75;;;6.20;;
18082;SDS011;9168;51.194;6.840;2023-09-08T02:47:39;16.17;;;7.07;;
18082;SDS011;9168;51.194;6.840;2023-09-08T02:50:06;19.08;;;7.15;;
18082;SDS011;9168;51.194;6.840;2023-09-08T02:52:35;21.85;;;6.78;;
18082;SDS011;9168;51.194;6.840;2023-09-08T02:55:02;16.73;;;7.30;;
18082;SDS011;9168;51.194;6.840;2023-09-08T02:57:29;13.80;;;6.35;;
18082;SDS011;9168;51.194;6.840;2023-09-08T02:59:56;16.17;;;7.15;;
18082;SDS011;9168;51.194;6.840;2023-09-08T03:02:24;14.75;;;6.13;;
18082;SDS011;9168;51.194;6.840;2023-09-08T03:04:51;13.65;;;6.50;;
18082;SDS011;9168;51.194;6.840;2023-09-08T03:07:18;11.63;;;7.00;;
18082;SDS011;9168;51.194;6.840;2023-09-08T03:09:46;14.63;;;6.35;;
18082;SDS011;9168;51.194;6.840;2023-09-08T03:12:13;12.00;;;6.85;;
18082;SDS011;9168;51.194;6.840;2023-09-08T03:14:40;13.77;;;6.40;;
18082;SDS011;9168;51.194;6.840;2023-09-08T03:17:07;14.15;;;6.00;;
18082;SDS011;9168;51.194;6.840;2023-09-08T03:19:33;10.18;;;6.38;;
18082;SDS011;9168;51.194;6.840;2023-09-08T03:22:00;11.25;;;6.57;;
18082;SDS011;9168;51.194;6.840;2023-09-08T03:24:27;20.23;;;7.03;;
18082;SDS011;9168;51.194;6.840;2023-09-08T03:26:55;11.80;;;6.25;;
18082;SDS011;9168;51.194;6.840;2023-09-08T03:29:23;11.82;;;6.57;;
18082;SDS011;9168;51.194;6.840;2023-09-08T03:31:49;12.95;;;6.72;;
18082;SDS011;9168;51.194;6.840;2023-09-08T03:34:16;14.00;;;6.43;;
18082;SDS011;9168;51.194;6.840;2023-09-08T03:36:45;11.20;;;6.18;;
18082;SDS011;9168;51.194;6.840;2023-09-08T03:39:12;17.50;;;6.50;;
18082;SDS011;9168;51.194;6.840;2023-09-08T03:41:39;15.23;;;6.63;;
18082;SDS011;9168;51.194;6.840;2023-09-08T03:44:07;15.23;;;6.28;;
18082;SDS011;9168;51.194;6.840;2023-09-08T03:46:34;11.60;;;6.20;;
18082;SDS011;9168;51.194;6.840;2023-09-08T03:49:02;16.98;;;6.63;;
18082;SDS011;9168;51.194;6.840;2023-09-08T03:51:29;12.90;;;6.88;;
18082;SDS011;9168;51.194;6.840;2023-09-08T03:53:55;13.30;;;6.30;;
18082;SDS011;9168;51.194;6.840;2023-09-08T03:56:22;17.45;;;6.30;;
18082;SDS011;9168;51.194;6.840;2023-09-08T03:58:49;12.95;;;6.65;;
18082;SDS011;9168;51.194;6.840;2023-09-08T04:01:18;23.02;;;6.88;;
18082;SDS011;9168;51.194;6.840;2023-09-08T04:03:44;20.35;;;7.03;;
18082;SDS011;9168;51.194;6.840;2023-09-08T04:06:11;22.65;;;6.32;;
18082;SDS011;9168;51.194;6.840;2023-09-08T04:08:38;19.88;;;6.72;;
18082;SDS011;9168;51.194;6.840;2023-09-08T04:11:05;23.70;;;7.03;;
18082;SDS011;9168;51.194;6.840;2023-09-08T04:13:32;22.60;;;6.50;;
18082;SDS011;9168;51.194;6.840;2023-09-08T04:15:59;22.02;;;7.00;;
18082;SDS011;9168;51.194;6.840;2023-09-08T04:18:27;20.65;;;6.90;;
18082;SDS011;9168;51.194;6.840;2023-09-08T04:20:54;16.58;;;6.20;;
18082;SDS011;9168;51.194;6.840;2023-09-08T04:23:20;18.65;;;6.95;;
18082;SDS011;9168;51.194;6.840;2023-09-08T04:25:47;23.20;;;6.38;;
18082;SDS011;9168;51.194;6.840;2023-09-08T04:28:14;17.92;;;6.53;;
18082;SDS011;9168;51.194;6.840;2023-09-08T04:30:41;22.30;;;7.43;;
18082;SDS011;9168;51.194;6.840;2023-09-08T04:33:08;12.98;;;6.90;;
18082;SDS011;9168;51.194;6.840;2023-09-08T04:35:36;15.50;;;7.03;;
18082;SDS011;9168;51.194;6.840;2023-09-08T04:38:03;13.30;;;6.50;;
18082;SDS011;9168;51.194;6.840;2023-09-08T04:40:30;15.15;;;7.32;;
18082;SDS011;9168;51.194;6.840;2023-09-08T04:42:57;15.77;;;7.20;;
18082;SDS011;9168;51.194;6.840;2023-09-08T04:45:24;17.23;;;7.32;;
18082;SDS011;9168;51.194;6.840;2023-09-08T04:47:51;16.10;;;7.10;;
18082;SDS011;9168;51.194;6.840;2023-09-08T04:50:17;14.18;;;6.68;;
18082;SDS011;9168;51.194;6.840;2023-09-08T04:52:46;17.23;;;6.60;;
18082;SDS011;9168;51.194;6.840;2023-09-08T04:55:13;18.73;;;7.05;;
18082;SDS011;9168;51.194;6.840;2023-09-08T04:57:40;19.98;;;6.50;;
18082;SDS011;9168;51.194;6.840;2023-09-08T05:00:07;10.82;;;6.18;;
18082;SDS011;9168;51.194;6.840;2023-09-08T05:02:34;22.50;;;7.10;;
18082;SDS011;9168;51.194;6.840;2023-09-08T05:05:01;16.48;;;7.22;;
18082;SDS011;9168;51.194;6.840;2023-09-08T05:07:28;17.30;;;6.90;;
18082;SDS011;9168;51.194;6.840;2023-09-08T05:09:56;19.83;;;7.32;;
18082;SDS011;9168;51.194;6.840;2023-09-08T05:12:23;15.98;;;7.15;;
18082;SDS011;9168;51.194;6.840;2023-09-08T05:14:50;15.00;;;6.95;;
18082;SDS011;9168;51.194;6.840;2023-09-08T05:17:21;19.73;;;7.32;;
18082;SDS011;9168;51.194;6.840;2023-09-08T05:19:48;27.00;;;6.95;;
18082;SDS011;9168;51.194;6.840;2023-09-08T05:22:16;15.77;;;7.53;;
18082;SDS011;9168;51.194;6.840;2023-09-08T05:24:43;11.05;;;7.07;;
18082;SDS011;9168;51.194;6.840;2023-09-08T05:27:12;14.48;;;8.02;;
18082;SDS011;9168;51.194;6.840;2023-09-08T05:29:39;12.13;;;7.57;;
18082;SDS011;9168;51.194;6.840;2023-09-08T05:32:05;14.40;;;7.07;;
18082;SDS011;9168;51.194;6.840;2023-09-08T05:34:32;15.93;;;7.60;;
18082;SDS011;9168;51.194;6.840;2023-09-08T05:36:59;14.00;;;7.32;;
18082;SDS011;9168;51.194;6.840;2023-09-08T05:39:26;11.52;;;7.53;;
18082;SDS011;9168;51.194;6.840;2023-09-08T05:41:53;12.65;;;7.25;;
18082;SDS011;9168;51.194;6.840;2023-09-08T05:44:21;10.18;;;6.80;;
18082;SDS011;9168;51.194;6.840;2023-09-08T05:46:50;13.27;;;7.40;;
18082;SDS011;9168;51.194;6.840;2023-09-08T05:49:17;13.57;;;7.15;;
18082;SDS011;9168;51.194;6.840;2023-09-08T05:51:44;13.85;;;6.75;;
18082;SDS011;9168;51.194;6.840;2023-09-08T05:54:11;16.75;;;7.97;;
18082;SDS011;9168;51.194;6.840;2023-09-08T05:56:38;19.05;;;8.00;;
18082;SDS011;9168;51.194;6.840;2023-09-08T05:59:05;13.57;;;7.53;;
18082;SDS011;9168;51.194;6.840;2023-09-08T06:01:33;19.50;;;8.50;;
18082;SDS011;9168;51.194;6.840;2023-09-08T06:04:00;14.63;;;7.57;;
18082;SDS011;9168;51.194;6.840;2023-09-08T06:06:26;20.65;;;7.78;;
18082;SDS011;9168;51.194;6.840;2023-09-08T06:08:54;16.25;;;7.88;;
18082;SDS011;9168;51.194;6.840;2023-09-08T06:11:21;15.18;;;8.40;;
18082;SDS011;9168;51.194;6.840;2023-09-08T06:13:48;16.70;;;7.90;;
18082;SDS011;9168;51.194;6.840;2023-09-08T06:16:14;19.55;;;8.25;;
18082;SDS011;9168;51.194;6.840;2023-09-08T06:18:43;22.73;;;8.75;;
18082;SDS011;9168;51.194;6.840;2023-09-08T06:21:11;17.05;;;8.18;;
18082;SDS011;9168;51.194;6.840;2023-09-08T06:23:38;17.15;;;7.90;;
18082;SDS011;9168;51.194;6.840;2023-09-08T06:26:05;18.65;;;8.48;;
18082;SDS011;9168;51.194;6.840;2023-09-08T06:28:32;19.83;;;8.48;;
18082;SDS011;9168;51.194;6.840;2023-09-08T06:30:59;13.60;;;7.43;;
18082;SDS011;9168;51.194;6.840;2023-09-08T06:33:26;19.63;;;7.53;;
18082;SDS011;9168;51.194;6.840;2023-09-08T06:35:54;15.30;;;7.80;;
18082;SDS011;9168;51.194;6.840;2023-09-08T06:38:21;12.80;;;7.45;;
18082;SDS011;9168;51.194;6.840;2023-09-08T06:40:48;19.63;;;6.50;;
18082;SDS011;9168;51.194;6.840;2023-09-08T06:43:18;14.18;;;6.80;;
18082;SDS011;9168;51.194;6.840;2023-09-08T06:45:46;10.98;;;6.22;;
18082;SDS011;9168;51.194;6.840;2023-09-08T06:48:13;14.98;;;6.57;;
18082;SDS011;9168;51.194;6.840;2023-09-08T06:50:40;13.00;;;5.55;;
18082;SDS011;9168;51.194;6.840;2023-09-08T06:53:09;12.68;;;6.18;;
18082;SDS011;9168;51.194;6.840;2023-09-08T06:55:37;13.52;;;5.60;;
18082;SDS011;9168;51.194;6.840;2023-09-08T06:58:04;17.05;;;6.47;;
18082;SDS011;9168;51.194;6.840;2023-09-08T07:00:31;12.48;;;5.53;;
18082;SDS011;9168;51.194;6.840;2023-09-08T07:02:58;11.02;;;5.10;;
18082;SDS011;9168;51.194;6.840;2023-09-08T07:05:25;15.73;;;5.60;;
18082;SDS011;9168;51.194;6.840;2023-09-08T07:07:52;11.35;;;5.60;;
18082;SDS011;9168;51.194;6.840;2023-09-08T07:10:20;10.98;;;5.45;;
18082;SDS011;9168;51.194;6.840;2023-09-08T07:12:47;11.18;;;5.47;;
18082;SDS011;9168;51.194;6.840;2023-09-08T07:15:14;13.98;;;5.93;;
18082;SDS011;9168;51.194;6.840;2023-09-08T07:17:41;13.20;;;5.50;;
18082;SDS011;9168;51.194;6.840;2023-09-08T07:20:08;11.95;;;5.82;;
18082;SDS011;9168;51.194;6.840;2023-09-08T07:22:35;10.60;;;5.75;;
18082;SDS011;9168;51.194;6.840;2023-09-08T07:25:03;8.75;;;5.22;;
18082;SDS011;9168;51.194;6.840;2023-09-08T07:27:32;7.93;;;4.80;;
18082;SDS011;9168;51.194;6.840;2023-09-08T07:29:59;9.40;;;5.03;;
18082;SDS011;9168;51.194;6.840;2023-09-08T07:32:26;15.32;;;5.45;;
18082;SDS011;9168;51.194;6.840;2023-09-08T07:34:53;12.30;;;5.18;;
18082;SDS011;9168;51.194;6.840;2023-09-08T07:37:20;8.07;;;4.88;;
18082;SDS011;9168;51.194;6.840;2023-09-08T07:39:48;13.55;;;5.00;;
18082;SDS011;9168;51.194;6.840;2023-09-08T07:42:15;9.18;;;5.25;;
18082;SDS011;9168;51.194;6.840;2023-09-08T07:44:43;8.20;;;4.78;;
18082;SDS011;9168;51.194;6.840;2023-09-08T07:47:10;10.30;;;4.50;;
18082;SDS011;9168;51.194;6.840;2023-09-08T07:49:37;10.45;;;5.03;;
18082;SDS011;9168;51.194;6.840;2023-09-08T07:52:04;9.75;;;4.80;;
18082;SDS011;9168;51.194;6.840;2023-09-08T07:54:32;13.30;;;5.35;;
18082;SDS011;9168;51.194;6.840;2023-09-08T07:57:00;16.08;;;5.25;;
18082;SDS011;9168;51.194;6.840;2023-09-08T07:59:27;10.82;;;4.57;;
18082;SDS011;9168;51.194;6.840;2023-09-08T08:01:55;11.57;;;5.32;;
18082;SDS011;9168;51.194;6.840;2023-09-08T08:04:22;16.58;;;5.50;;
18082;SDS011;9168;51.194;6.840;2023-09-08T08:06:49;14.80;;;5.30;;
18082;SDS011;9168;51.194;6.840;2023-09-08T08:09:16;13.30;;;5.15;;
18082;SDS011;9168;51.194;6.840;2023-09-08T08:11:43;12.73;;;5.60;;
18082;SDS011;9168;51.194;6.840;2023-09-08T08:14:10;14.85;;;4.93;;
18082;SDS011;9168;51.194;6.840;2023-09-08T08:16:37;10.50;;;4.90;;
18082;SDS011;9168;51.194;6.840;2023-09-08T08:19:05;12.93;;;4.95;;
18082;SDS011;9168;51.194;6.840;2023-09-08T08:21:32;15.23;;;4.80;;
18082;SDS011;9168;51.194;6.840;2023-09-08T08:23:59;11.57;;;4.63;;
18082;SDS011;9168;51.194;6.840;2023-09-08T08:26:26;10.18;;;4.85;;
18082;SDS011;9168;51.194;6.840;2023-09-08T08:28:57;12.07;;;5.43;;
18082;SDS011;9168;51.194;6.840;2023-09-08T08:31:24;15.98;;;5.38;;
18082;SDS011;9168;51.194;6.840;2023-09-08T08:33:51;17.83;;;5.35;;
18082;SDS011;9168;51.194;6.840;2023-09-08T08:36:19;9.57;;;5.00;;
18082;SDS011;9168;51.194;6.840;2023-09-08T08:38:47;11.70;;;4.50;;
18082;SDS011;9168;51.194;6.840;2023-09-08T08:41:13;15.35;;;4.57;;
18082;SDS011;9168;51.194;6.840;2023-09-08T08:43:41;15.40;;;4.47;;
18082;SDS011;9168;51.194;6.840;2023-09-08T08:46:10;12.10;;;5.20;;
18082;SDS011;9168;51.194;6.840;2023-09-08T08:48:39;10.10;;;4.55;;
18082;SDS011;9168;51.194;6.840;2023-09-08T08:51:07;16.33;;;4.78;;
18082;SDS011;9168;51.194;6.840;2023-09-08T08:53:37;14.30;;;5.07;;
18082;SDS011;9168;51.194;6.840;2023-09-08T08:56:06;11.73;;;5.25;;
18082;SDS011;9168;51.194;6.840;2023-09-08T08:58:35;13.68;;;4.75;;
18082;SDS011;9168;51.194;6.840;2023-09-08T09:01:03;10.55;;;5.10;;
18082;SDS011;9168;51.194;6.840;2023-09-08T09:03:30;12.95;;;4.93;;
18082;SDS011;9168;51.194;6.840;2023-09-08T09:05:59;11.90;;;4.97;;
18082;SDS011;9168;51.194;6.840;2023-09-08T09:08:26;13.93;;;5.47;;
18082;SDS011;9168;51.194;6.840;2023-09-08T09:10:55;10.13;;;4.35;;
18082;SDS011;9168;51.194;6.840;2023-09-08T09:13:22;9.88;;;4.75;;
18082;SDS011;9168;51.194;6.840;2023-09-08T09:15:49;14.80;;;4.70;;
18082;SDS011;9168;51.194;6.840;2023-09-08T09:18:17;8.90;;;4.25;;
18082;SDS011;9168;51.194;6.840;2023-09-08T09:20:52;11.52;;;4.85;;
18082;SDS011;9168;51.194;6.840;2023-09-08T09:23:26;11.98;;;4.78;;
18082;SDS011;9168;51.194;6.840;2023-09-08T09:25:55;11.52;;;5.00;;
18082;SDS011;9168;51.194;6.840;2023-09-08T09:28:23;15.65;;;5.47;;
18082;SDS011;9168;51.194;6.840;2023-09-08T09:30:51;10.20;;;4.43;;
18082;SDS011;9168;51.194;6.840;2023-09-08T09:33:19;6.60;;;4.38;;
18082;SDS011;9168;51.194;6.840;2023-09-08T09:35:48;11.93;;;4.57;;
18082;SDS011;9168;51.194;6.840;2023-09-08T09:38:15;8.20;;;4.63;;
18082;SDS011;9168;51.194;6.840;2023-09-08T09:40:43;11.75;;;4.75;;
18082;SDS011;9168;51.194;6.840;2023-09-08T09:43:12;10.43;;;4.50;;
18082;SDS011;9168;51.194;6.840;2023-09-08T09:45:40;8.30;;;4.57;;
18082;SDS011;9168;51.194;6.840;2023-09-08T09:48:08;12.32;;;5.05;;
18082;SDS011;9168;51.194;6.840;2023-09-08T09:50:37;6.38;;;4.35;;
18082;SDS011;9168;51.194;6.840;2023-09-08T09:53:08;7.70;;;4.45;;
18082;SDS011;9168;51.194;6.840;2023-09-08T09:55:36;8.68;;;4.32;;
18082;SDS011;9168;51.194;6.840;2023-09-08T09:58:04;13.70;;;5.20;;
18082;SDS011;9168;51.194;6.840;2023-09-08T10:00:33;14.10;;;4.90;;
18082;SDS011;9168;51.194;6.840;2023-09-08T10:03:02;16.80;;;4.75;;
18082;SDS011;9168;51.194;6.840;2023-09-08T10:05:30;8.88;;;4.53;;
18082;SDS011;9168;51.194;6.840;2023-09-08T10:07:57;8.13;;;4.75;;
18082;SDS011;9168;51.194;6.840;2023-09-08T10:10:26;10.27;;;4.60;;
18082;SDS011;9168;51.194;6.840;2023-09-08T10:12:54;10.65;;;5.25;;
18082;SDS011;9168;51.194;6.840;2023-09-08T10:15:22;13.43;;;5.43;;
18082;SDS011;9168;51.194;6.840;2023-09-08T10:17:53;12.52;;;5.20;;
18082;SDS011;9168;51.194;6.840;2023-09-08T10:20:22;9.48;;;5.00;;
18082;SDS011;9168;51.194;6.840;2023-09-08T10:22:50;11.05;;;4.93;;
18082;SDS011;9168;51.194;6.840;2023-09-08T10:25:20;10.02;;;4.57;;
18082;SDS011;9168;51.194;6.840;2023-09-08T10:27:50;13.50;;;4.82;;
18082;SDS011;9168;51.194;6.840;2023-09-08T10:30:17;13.15;;;4.88;;
18082;SDS011;9168;51.194;6.840;2023-09-08T10:32:46;9.48;;;4.80;;
18082;SDS011;9168;51.194;6.840;2023-09-08T10:35:17;8.95;;;4.95;;
18082;SDS011;9168;51.194;6.840;2023-09-08T10:37:44;15.13;;;5.25;;
18082;SDS011;9168;51.194;6.840;2023-09-08T10:40:21;12.40;;;5.18;;
18082;SDS011;9168;51.194;6.840;2023-09-08T10:42:49;12.20;;;5.28;;
18082;SDS011;9168;51.194;6.840;2023-09-08T10:45:32;15.10;;;5.30;;
18082;SDS011;9168;51.194;6.840;2023-09-08T10:47:59;11.27;;;5.32;;
18082;SDS011;9168;51.194;6.840;2023-09-08T10:50:30;12.52;;;5.25;;
18082;SDS011;9168;51.194;6.840;2023-09-08T10:53:05;7.82;;;4.88;;
18082;SDS011;9168;51.194;6.840;2023-09-08T10:55:36;10.68;;;4.90;;
18082;SDS011;9168;51.194;6.840;2023-09-08T10:58:03;13.77;;;4.82;;
18082;SDS011;9168;51.194;6.840;2023-09-08T11:00:42;12.27;;;4.80;;
18082;SDS011;9168;51.194;6.840;2023-09-08T11:03:11;8.98;;;5.15;;
18082;SDS011;9168;51.194;6.840;2023-09-08T11:05:40;7.82;;;5.07;;
18082;SDS011;9168;51.194;6.840;2023-09-08T11:08:08;13.07;;;5.53;;
18082;SDS011;9168;51.194;6.840;2023-09-08T11:10:35;9.35;;;5.32;;
18082;SDS011;9168;51.194;6.840;2023-09-08T11:13:05;10.35;;;5.22;;
18082;SDS011;9168;51.194;6.840;2023-09-08T11:15:32;9.88;;;5.40;;
18082;SDS011;9168;51.194;6.840;2023-09-08T11:18:04;12.20;;;5.60;;
18082;SDS011;9168;51.194;6.840;2023-09-08T11:20:33;14.35;;;6.05;;
18082;SDS011;9168;51.194;6.840;2023-09-08T11:23:02;9.30;;;5.53;;
18082;SDS011;9168;51.194;6.840;2023-09-08T11:25:31;9.02;;;5.90;;
18082;SDS011;9168;51.194;6.840;2023-09-08T11:27:59;14.65;;;5.43;;
18082;SDS011;9168;51.194;6.840;2023-09-08T11:30:26;10.27;;;6.00;;
18082;SDS011;9168;51.194;6.840;2023-09-08T11:32:54;13.13;;;5.63;;
18082;SDS011;9168;51.194;6.840;2023-09-08T11:35:24;11.25;;;5.45;;
18082;SDS011;9168;51.194;6.840;2023-09-08T11:37:59;10.13;;;6.13;;
18082;SDS011;9168;51.194;6.840;2023-09-08T11:40:30;7.80;;;5.90;;
18082;SDS011;9168;51.194;6.840;2023-09-08T11:42:57;18.42;;;6.55;;
18082;SDS011;9168;51.194;6.840;2023-09-08T11:45:24;12.60;;;6.07;;
18082;SDS011;9168;51.194;6.840;2023-09-08T11:47:52;14.18;;;6.38;;
18082;SDS011;9168;51.194;6.840;2023-09-08T11:50:19;10.13;;;5.97;;
18082;SDS011;9168;51.194;6.840;2023-09-08T11:52:48;11.70;;;6.40;;
18082;SDS011;9168;51.194;6.840;2023-09-08T11:55:16;9.20;;;5.88;;
18082;SDS011;9168;51.194;6.840;2023-09-08T11:57:46;10.02;;;5.90;;
18082;SDS011;9168;51.194;6.840;2023-09-08T12:00:15;16.98;;;5.82;;
18082;SDS011;9168;51.194;6.840;2023-09-08T12:02:46;12.98;;;6.47;;
18082;SDS011;9168;51.194;6.840;2023-09-08T12:05:13;7.97;;;5.97;;
18082;SDS011;9168;51.194;6.840;2023-09-08T12:07:40;14.18;;;6.43;;
18082;SDS011;9168;51.194;6.840;2023-09-08T12:10:08;11.70;;;6.32;;
18082;SDS011;9168;51.194;6.840;2023-09-08T12:12:41;9.93;;;6.50;;
18082;SDS011;9168;51.194;6.840;2023-09-08T12:15:10;12.65;;;6.30;;
18082;SDS011;9168;51.194;6.840;2023-09-08T12:17:47;10.10;;;6.15;;
18082;SDS011;9168;51.194;6.840;2023-09-08T12:20:15;7.72;;;5.90;;
18082;SDS011;9168;51.194;6.840;2023-09-08T12:22:48;12.57;;;6.05;;
18082;SDS011;9168;51.194;6.840;2023-09-08T12:25:16;11.98;;;6.47;;
18082;SDS011;9168;51.194;6.840;2023-09-08T12:27:44;12.52;;;6.82;;
18082;SDS011;9168;51.194;6.840;2023-09-08T12:30:17;8.90;;;6.72;;
18082;SDS011;9168;51.194;6.840;2023-09-08T12:32:46;10.65;;;6.50;;
18082;SDS011;9168;51.194;6.840;2023-09-08T12:35:19;8.82;;;6.63;;
18082;SDS011;9168;51.194;6.840;2023-09-08T12:37:53;6.90;;;6.20;;
18082;SDS011;9168;51.194;6.840;2023-09-08T12:40:24;9.90;;;6.55;;
18082;SDS011;9168;51.194;6.840;2023-09-08T12:42:51;10.77;;;6.03;;
18082;SDS011;9168;51.194;6.840;2023-09-08T12:45:19;9.95;;;6.57;;
18082;SDS011;9168;51.194;6.840;2023-09-08T12:47:47;10.90;;;6.28;;
18082;SDS011;9168;51.194;6.840;2023-09-08T12:50:14;10.32;;;6.78;;
18082;SDS011;9168;51.194;6.840;2023-09-08T12:52:41;8.63;;;6.88;;
18082;SDS011;9168;51.194;6.840;2023-09-08T12:55:08;7.60;;;6.53;;
18082;SDS011;9168;51.194;6.840;2023-09-08T12:57:35;11.57;;;6.47;;
18082;SDS011;9168;51.194;6.840;2023-09-08T13:00:02;7.93;;;6.47;;
18082;SDS011;9168;51.194;6.840;2023-09-08T13:02:31;13.10;;;6.38;;
18082;SDS011;9168;51.194;6.840;2023-09-08T13:04:58;10.80;;;6.63;;
18082;SDS011;9168;51.194;6.840;2023-09-08T13:07:25;14.02;;;6.53;;
18082;SDS011;9168;51.194;6.840;2023-09-08T13:09:53;12.13;;;6.40;;
18082;SDS011;9168;51.194;6.840;2023-09-08T13:12:20;9.23;;;6.50;;
18082;SDS011;9168;51.194;6.840;2023-09-08T13:14:47;8.48;;;6.07;;
18082;SDS011;9168;51.194;6.840;2023-09-08T13:17:14;10.65;;;6.00;;
18082;SDS011;9168;51.194;6.840;2023-09-08T13:19:43;10.75;;;6.25;;
18082;SDS011;9168;51.194;6.840;2023-09-08T13:22:10;10.20;;;6.30;;
18082;SDS011;9168;51.194;6.840;2023-09-08T13:24:37;12.50;;;6.32;;
18082;SDS011;9168;51.194;6.840;2023-09-08T13:27:04;10.65;;;6.63;;
18082;SDS011;9168;51.194;6.840;2023-09-08T13:29:31;7.05;;;5.72;;
18082;SDS011;9168;51.194;6.840;2023-09-08T13:31:58;15.57;;;6.72;;
18082;SDS011;9168;51.194;6.840;2023-09-08T13:34:25;11.52;;;5.85;;
18082;SDS011;9168;51.194;6.840;2023-09-08T13:36:53;12.65;;;6.25;;
18082;SDS011;9168;51.194;6.840;2023-09-08T13:39:20;11.05;;;5.78;;
18082;SDS011;9168;51.194;6.840;2023-09-08T13:41:47;6.28;;;5.65;;
18082;SDS011;9168;51.194;6.840;2023-09-08T13:44:16;6.32;;;5.65;;
18082;SDS011;9168;51.194;6.840;2023-09-08T13:46:44;13.15;;;6.32;;
18082;SDS011;9168;51.194;6.840;2023-09-08T13:49:11;10.43;;;5.97;;
18082;SDS011;9168;51.194;6.840;2023-09-08T13:51:38;12.73;;;5.90;;
18082;SDS011;9168;51.194;6.840;2023-09-08T13:54:07;10.82;;;5.95;;
18082;SDS011;9168;51.194;6.840;2023-09-08T13:56:34;10.82;;;5.53;;
18082;SDS011;9168;51.194;6.840;2023-09-08T13:59:01;16.25;;;5.78;;
18082;SDS011;9168;51.194;6.840;2023-09-08T14:01:28;11.10;;;5.50;;
18082;SDS011;9168;51.194;6.840;2023-09-08T14:03:56;11.05;;;6.30;;
18082;SDS011;9168;51.194;6.840;2023-09-08T14:06:25;9.68;;;6.20;;
18082;SDS011;9168;51.194;6.840;2023-09-08T14:08:52;9.63;;;6.22;;
18082;SDS011;9168;51.194;6.840;2023-09-08T14:11:21;7.60;;;5.80;;
18082;SDS011;9168;51.194;6.840;2023-09-08T14:13:48;12.23;;;6.45;;
18082;SDS011;9168;51.194;6.840;2023-09-08T14:16:16;8.13;;;6.00;;
18082;SDS011;9168;51.194;6.840;2023-09-08T14:18:43;9.85;;;6.30;;
18082;SDS011;9168;51.194;6.840;2023-09-08T14:21:11;8.77;;;6.60;;
18082;SDS011;9168;51.194;6.840;2023-09-08T14:23:37;14.32;;;6.90;;
18082;SDS011;9168;51.194;6.840;2023-09-08T14:26:06;12.57;;;6.70;;
18082;SDS011;9168;51.194;6.840;2023-09-08T14:28:34;11.13;;;6.40;;
18082;SDS011;9168;51.194;6.840;2023-09-08T14:31:01;10.07;;;6.30;;
18082;SDS011;9168;51.194;6.840;2023-09-08T14:33:28;14.15;;;6.35;;
18082;SDS011;9168;51.194;6.840;2023-09-08T14:35:55;13.23;;;6.70;;
18082;SDS011;9168;51.194;6.840;2023-09-08T14:38:22;14.48;;;6.10;;
18082;SDS011;9168;51.194;6.840;2023-09-08T14:40:53;18.98;;;6.65;;
18082;SDS011;9168;51.194;6.840;2023-09-08T14:43:21;15.80;;;6.30;;
18082;SDS011;9168;51.194;6.840;2023-09-08T14:45:50;12.93;;;6.38;;
18082;SDS011;9168;51.194;6.840;2023-09-08T14:48:17;14.15;;;6.15;;
18082;SDS011;9168;51.194;6.840;2023-09-08T14:50:44;10.63;;;6.30;;
18082;SDS011;9168;51.194;6.840;2023-09-08T14:53:11;14.68;;;6.30;;
18082;SDS011;9168;51.194;6.840;2023-09-08T14:55:38;14.93;;;6.03;;
18082;SDS011;9168;51.194;6.840;2023-09-08T14:58:05;9.60;;;6.00;;